sensor_id;sensor_type;location;lat;lon;timestamp;temperature;humidity
18002;DHT22;9126;48.160;17.130;2022-10-16T00:01:08;16.60;77.70
18002;DHT22;9126;48.160;17.130;2022-10-16T00:03:37;16.50;77.90
18002;DHT22;9126;48.160;17.130;2022-10-16T00:06:05;16.50;78.30
18002;DHT22;9126;48.160;17.130;2022-10-16T00:08:35;16.50;78.40
18002;DHT22;9126;48.160;17.130;2022-10-16T00:11:04;16.50;78.50
18002;DHT22;9126;48.160;17.130;2022-10-16T00:13:33;16.50;78.50
18002;DHT22;9126;48.160;17.130;2022-10-16T00:16:01;16.50;78.50
18002;DHT22;9126;48.160;17.130;2022-10-16T00:18:29;16.40;79.10
18002;DHT22;9126;48.160;17.130;2022-10-16T00:21:03;16.40;78.50
18002;DHT22;9126;48.160;17.130;2022-10-16T00:23:31;16.30;78.50
18002;DHT22;9126;48.160;17.130;2022-10-16T00:26:02;16.30;78.60
18002;DHT22;9126;48.160;17.130;2022-10-16T00:28:31;16.30;78.60
18002;DHT22;9126;48.160;17.130;2022-10-16T00:31:01;16.30;78.60
18002;DHT22;9126;48.160;17.130;2022-10-16T00:33:31;16.30;78.70
18002;DHT22;9126;48.160;17.130;2022-10-16T00:35:59;16.30;78.80
18002;DHT22;9126;48.160;17.130;2022-10-16T00:38:28;16.20;78.80
18002;DHT22;9126;48.160;17.130;2022-10-16T00:40:55;16.20;78.70
18002;DHT22;9126;48.160;17.130;2022-10-16T00:43:38;16.20;78.70
18002;DHT22;9126;48.160;17.130;2022-10-16T00:46:13;16.20;78.70
18002;DHT22;9126;48.160;17.130;2022-10-16T00:48:45;16.10;78.70
18002;DHT22;9126;48.160;17.130;2022-10-16T00:51:17;16.10;78.80
18002;DHT22;9126;48.160;17.130;2022-10-16T00:53:46;16.10;78.80
18002;DHT22;9126;48.160;17.130;2022-10-16T00:56:14;16.10;78.90
18002;DHT22;9126;48.160;17.130;2022-10-16T00:58:43;16.00;79.00
18002;DHT22;9126;48.160;17.130;2022-10-16T01:01:13;16.00;79.10
18002;DHT22;9126;48.160;17.130;2022-10-16T01:03:40;16.00;79.10
18002;DHT22;9126;48.160;17.130;2022-10-16T01:06:23;16.00;79.20
18002;DHT22;9126;48.160;17.130;2022-10-16T01:09:05;15.90;79.30
18002;DHT22;9126;48.160;17.130;2022-10-16T01:11:41;15.90;79.30
18002;DHT22;9126;48.160;17.130;2022-10-16T01:14:21;15.90;79.40
18002;DHT22;9126;48.160;17.130;2022-10-16T01:16:55;15.90;79.50
18002;DHT22;9126;48.160;17.130;2022-10-16T01:19:41;15.90;79.50
18002;DHT22;9126;48.160;17.130;2022-10-16T01:22:11;15.90;79.60
18002;DHT22;9126;48.160;17.130;2022-10-16T01:24:43;15.80;79.50
18002;DHT22;9126;48.160;17.130;2022-10-16T01:27:16;15.80;79.50
18002;DHT22;9126;48.160;17.130;2022-10-16T01:29:52;15.80;79.60
18002;DHT22;9126;48.160;17.130;2022-10-16T01:32:28;15.80;79.70
18002;DHT22;9126;48.160;17.130;2022-10-16T01:35:02;15.70;79.60
18002;DHT22;9126;48.160;17.130;2022-10-16T01:37:36;15.70;79.70
18002;DHT22;9126;48.160;17.130;2022-10-16T01:40:09;15.70;79.70
18002;DHT22;9126;48.160;17.130;2022-10-16T01:42:41;15.70;79.70
18002;DHT22;9126;48.160;17.130;2022-10-16T01:45:11;15.70;79.70
18002;DHT22;9126;48.160;17.130;2022-10-16T01:47:41;15.60;79.70
18002;DHT22;9126;48.160;17.130;2022-10-16T01:50:11;15.60;79.70
18002;DHT22;9126;48.160;17.130;2022-10-16T01:52:43;15.50;79.70
18002;DHT22;9126;48.160;17.130;2022-10-16T01:55:18;15.50;79.70
18002;DHT22;9126;48.160;17.130;2022-10-16T01:57:50;15.50;79.90
18002;DHT22;9126;48.160;17.130;2022-10-16T02:00:22;15.40;79.90
18002;DHT22;9126;48.160;17.130;2022-10-16T02:02:53;15.40;79.90
18002;DHT22;9126;48.160;17.130;2022-10-16T02:05:24;15.40;79.90
18002;DHT22;9126;48.160;17.130;2022-10-16T02:08:00;15.50;80.00
18002;DHT22;9126;48.160;17.130;2022-10-16T02:10:27;15.50;80.00
18002;DHT22;9126;48.160;17.130;2022-10-16T02:13:09;15.50;79.90
18002;DHT22;9126;48.160;17.130;2022-10-16T02:15:37;15.50;80.50
18002;DHT22;9126;48.160;17.130;2022-10-16T02:18:05;15.50;79.70
18002;DHT22;9126;48.160;17.130;2022-10-16T02:20:37;15.50;79.80
18002;DHT22;9126;48.160;17.130;2022-10-16T02:23:06;15.50;79.80
18002;DHT22;9126;48.160;17.130;2022-10-16T02:25:40;15.50;79.70
18002;DHT22;9126;48.160;17.130;2022-10-16T02:28:14;15.50;79.60
18002;DHT22;9126;48.160;17.130;2022-10-16T02:30:45;15.40;79.80
18002;DHT22;9126;48.160;17.130;2022-10-16T02:33:15;15.40;79.90
18002;DHT22;9126;48.160;17.130;2022-10-16T02:35:44;15.40;79.90
18002;DHT22;9126;48.160;17.130;2022-10-16T02:38:14;15.50;79.90
18002;DHT22;9126;48.160;17.130;2022-10-16T02:40:43;15.50;79.70
18002;DHT22;9126;48.160;17.130;2022-10-16T02:43:13;15.60;79.70
18002;DHT22;9126;48.160;17.130;2022-10-16T02:45:44;15.50;79.40
18002;DHT22;9126;48.160;17.130;2022-10-16T02:48:14;15.60;79.50
18002;DHT22;9126;48.160;17.130;2022-10-16T02:50:42;15.60;79.50
18002;DHT22;9126;48.160;17.130;2022-10-16T02:53:10;15.60;79.40
18002;DHT22;9126;48.160;17.130;2022-10-16T02:55:39;15.60;79.40
18002;DHT22;9126;48.160;17.130;2022-10-16T02:58:06;15.60;79.20
18002;DHT22;9126;48.160;17.130;2022-10-16T03:00:37;15.60;79.10
18002;DHT22;9126;48.160;17.130;2022-10-16T03:03:05;15.60;79.10
18002;DHT22;9126;48.160;17.130;2022-10-16T03:05:32;15.60;79.00
18002;DHT22;9126;48.160;17.130;2022-10-16T03:07:59;15.60;78.80
18002;DHT22;9126;48.160;17.130;2022-10-16T03:10:27;15.70;78.80
18002;DHT22;9126;48.160;17.130;2022-10-16T03:12:55;15.70;78.70
18002;DHT22;9126;48.160;17.130;2022-10-16T03:15:22;15.70;78.60
18002;DHT22;9126;48.160;17.130;2022-10-16T03:17:51;15.80;78.60
18002;DHT22;9126;48.160;17.130;2022-10-16T03:20:20;15.80;78.50
18002;DHT22;9126;48.160;17.130;2022-10-16T03:22:50;15.70;78.40
18002;DHT22;9126;48.160;17.130;2022-10-16T03:25:18;15.70;78.50
18002;DHT22;9126;48.160;17.130;2022-10-16T03:27:46;15.70;78.60
18002;DHT22;9126;48.160;17.130;2022-10-16T03:30:13;15.70;78.50
18002;DHT22;9126;48.160;17.130;2022-10-16T03:32:43;15.70;78.60
18002;DHT22;9126;48.160;17.130;2022-10-16T03:35:25;15.70;78.60
18002;DHT22;9126;48.160;17.130;2022-10-16T03:37:56;15.80;78.50
18002;DHT22;9126;48.160;17.130;2022-10-16T03:40:25;15.80;78.40
18002;DHT22;9126;48.160;17.130;2022-10-16T03:42:53;15.80;78.30
18002;DHT22;9126;48.160;17.130;2022-10-16T03:45:23;15.80;78.30
18002;DHT22;9126;48.160;17.130;2022-10-16T03:47:50;15.80;78.20
18002;DHT22;9126;48.160;17.130;2022-10-16T03:50:17;15.80;78.20
18002;DHT22;9126;48.160;17.130;2022-10-16T03:52:46;15.70;78.20
18002;DHT22;9126;48.160;17.130;2022-10-16T03:55:14;15.70;78.30
18002;DHT22;9126;48.160;17.130;2022-10-16T03:57:43;15.70;78.40
18002;DHT22;9126;48.160;17.130;2022-10-16T04:00:14;15.70;78.50
18002;DHT22;9126;48.160;17.130;2022-10-16T04:02:42;15.80;78.60
18002;DHT22;9126;48.160;17.130;2022-10-16T04:05:10;15.80;78.60
18002;DHT22;9126;48.160;17.130;2022-10-16T04:07:37;15.80;78.60
18002;DHT22;9126;48.160;17.130;2022-10-16T04:10:07;15.80;78.60
18002;DHT22;9126;48.160;17.130;2022-10-16T04:12:35;15.80;78.70
18002;DHT22;9126;48.160;17.130;2022-10-16T04:15:06;15.70;78.80
18002;DHT22;9126;48.160;17.130;2022-10-16T04:17:33;15.80;78.90
18002;DHT22;9126;48.160;17.130;2022-10-16T04:20:01;15.80;78.90
18002;DHT22;9126;48.160;17.130;2022-10-16T04:22:29;15.80;78.90
18002;DHT22;9126;48.160;17.130;2022-10-16T04:24:56;15.80;78.90
18002;DHT22;9126;48.160;17.130;2022-10-16T04:27:28;15.80;79.00
18002;DHT22;9126;48.160;17.130;2022-10-16T04:29:58;15.80;79.10
18002;DHT22;9126;48.160;17.130;2022-10-16T04:32:27;15.80;78.90
18002;DHT22;9126;48.160;17.130;2022-10-16T04:34:54;15.80;79.00
18002;DHT22;9126;48.160;17.130;2022-10-16T04:37:24;15.70;79.00
18002;DHT22;9126;48.160;17.130;2022-10-16T04:39:52;15.70;79.00
18002;DHT22;9126;48.160;17.130;2022-10-16T04:42:20;15.80;79.00
18002;DHT22;9126;48.160;17.130;2022-10-16T04:44:50;15.70;78.90
18002;DHT22;9126;48.160;17.130;2022-10-16T04:47:17;15.70;79.00
18002;DHT22;9126;48.160;17.130;2022-10-16T04:49:44;15.70;78.90
18002;DHT22;9126;48.160;17.130;2022-10-16T04:52:11;15.70;79.50
18002;DHT22;9126;48.160;17.130;2022-10-16T04:54:40;15.60;78.80
18002;DHT22;9126;48.160;17.130;2022-10-16T04:57:08;15.60;78.90
18002;DHT22;9126;48.160;17.130;2022-10-16T04:59:37;15.50;78.90
18002;DHT22;9126;48.160;17.130;2022-10-16T05:02:06;15.50;78.90
18002;DHT22;9126;48.160;17.130;2022-10-16T05:04:34;15.40;78.90
18002;DHT22;9126;48.160;17.130;2022-10-16T05:07:02;15.40;79.00
18002;DHT22;9126;48.160;17.130;2022-10-16T05:09:29;15.40;79.10
18002;DHT22;9126;48.160;17.130;2022-10-16T05:11:56;15.40;79.80
18002;DHT22;9126;48.160;17.130;2022-10-16T05:14:24;15.40;79.30
18002;DHT22;9126;48.160;17.130;2022-10-16T05:16:51;15.30;79.30
18002;DHT22;9126;48.160;17.130;2022-10-16T05:19:21;15.30;79.30
18002;DHT22;9126;48.160;17.130;2022-10-16T05:21:49;15.20;80.10
18002;DHT22;9126;48.160;17.130;2022-10-16T05:24:16;15.20;79.60
18002;DHT22;9126;48.160;17.130;2022-10-16T05:26:43;15.20;79.70
18002;DHT22;9126;48.160;17.130;2022-10-16T05:29:10;15.20;79.70
18002;DHT22;9126;48.160;17.130;2022-10-16T05:31:37;15.20;80.50
18002;DHT22;9126;48.160;17.130;2022-10-16T05:34:04;15.30;79.90
18002;DHT22;9126;48.160;17.130;2022-10-16T05:36:33;15.30;79.90
18002;DHT22;9126;48.160;17.130;2022-10-16T05:39:00;15.30;79.80
18002;DHT22;9126;48.160;17.130;2022-10-16T05:41:29;15.30;79.80
18002;DHT22;9126;48.160;17.130;2022-10-16T05:43:57;15.30;79.70
18002;DHT22;9126;48.160;17.130;2022-10-16T05:46:26;15.30;79.80
18002;DHT22;9126;48.160;17.130;2022-10-16T05:48:56;15.30;79.70
18002;DHT22;9126;48.160;17.130;2022-10-16T05:51:24;15.30;79.70
18002;DHT22;9126;48.160;17.130;2022-10-16T05:53:53;15.30;80.30
18002;DHT22;9126;48.160;17.130;2022-10-16T05:56:20;15.30;79.70
18002;DHT22;9126;48.160;17.130;2022-10-16T05:58:47;15.30;79.70
18002;DHT22;9126;48.160;17.130;2022-10-16T06:01:16;15.30;79.70
18002;DHT22;9126;48.160;17.130;2022-10-16T06:03:44;15.30;79.70
18002;DHT22;9126;48.160;17.130;2022-10-16T06:06:12;15.30;79.60
18002;DHT22;9126;48.160;17.130;2022-10-16T06:08:40;15.40;79.70
18002;DHT22;9126;48.160;17.130;2022-10-16T06:11:11;15.50;79.50
18002;DHT22;9126;48.160;17.130;2022-10-16T06:13:39;15.60;79.30
18002;DHT22;9126;48.160;17.130;2022-10-16T06:16:09;15.70;79.20
18002;DHT22;9126;48.160;17.130;2022-10-16T06:18:37;15.90;79.10
18002;DHT22;9126;48.160;17.130;2022-10-16T06:21:08;16.00;78.70
18002;DHT22;9126;48.160;17.130;2022-10-16T06:23:35;16.10;78.30
18002;DHT22;9126;48.160;17.130;2022-10-16T06:26:06;16.20;78.00
18002;DHT22;9126;48.160;17.130;2022-10-16T06:28:35;16.30;77.40
18002;DHT22;9126;48.160;17.130;2022-10-16T06:31:03;16.30;77.00
18002;DHT22;9126;48.160;17.130;2022-10-16T06:33:31;16.40;76.80
18002;DHT22;9126;48.160;17.130;2022-10-16T06:36:02;16.50;76.50
18002;DHT22;9126;48.160;17.130;2022-10-16T06:38:29;16.50;75.90
18002;DHT22;9126;48.160;17.130;2022-10-16T06:40:57;16.60;75.70
18002;DHT22;9126;48.160;17.130;2022-10-16T06:43:25;16.70;75.40
18002;DHT22;9126;48.160;17.130;2022-10-16T06:45:54;16.80;75.00
18002;DHT22;9126;48.160;17.130;2022-10-16T06:48:21;16.70;74.50
18002;DHT22;9126;48.160;17.130;2022-10-16T06:50:56;16.60;74.20
18002;DHT22;9126;48.160;17.130;2022-10-16T06:53:23;16.40;74.00
18002;DHT22;9126;48.160;17.130;2022-10-16T06:55:51;16.30;74.20
18002;DHT22;9126;48.160;17.130;2022-10-16T06:58:19;16.30;74.30
18002;DHT22;9126;48.160;17.130;2022-10-16T07:00:46;16.40;74.30
18002;DHT22;9126;48.160;17.130;2022-10-16T07:03:16;16.40;74.00
18002;DHT22;9126;48.160;17.130;2022-10-16T07:05:44;16.50;74.00
18002;DHT22;9126;48.160;17.130;2022-10-16T07:08:11;16.50;73.70
18002;DHT22;9126;48.160;17.130;2022-10-16T07:10:39;16.60;73.70
18002;DHT22;9126;48.160;17.130;2022-10-16T07:13:07;16.70;73.50
18002;DHT22;9126;48.160;17.130;2022-10-16T07:15:34;16.70;73.30
18002;DHT22;9126;48.160;17.130;2022-10-16T07:18:01;16.80;73.20
18002;DHT22;9126;48.160;17.130;2022-10-16T07:20:30;16.90;72.80
18002;DHT22;9126;48.160;17.130;2022-10-16T07:22:57;16.80;72.30
18002;DHT22;9126;48.160;17.130;2022-10-16T07:25:26;16.80;72.20
18002;DHT22;9126;48.160;17.130;2022-10-16T07:27:53;16.80;72.10
18002;DHT22;9126;48.160;17.130;2022-10-16T07:30:22;16.90;72.10
18002;DHT22;9126;48.160;17.130;2022-10-16T07:32:52;17.00;71.80
18002;DHT22;9126;48.160;17.130;2022-10-16T07:35:22;17.10;71.70
18002;DHT22;9126;48.160;17.130;2022-10-16T07:37:50;17.10;71.60
18002;DHT22;9126;48.160;17.130;2022-10-16T07:40:18;17.10;71.30
18002;DHT22;9126;48.160;17.130;2022-10-16T07:42:46;17.00;71.30
18002;DHT22;9126;48.160;17.130;2022-10-16T07:45:14;17.10;71.40
18002;DHT22;9126;48.160;17.130;2022-10-16T07:47:43;17.10;71.20
18002;DHT22;9126;48.160;17.130;2022-10-16T07:50:23;17.20;71.10
18002;DHT22;9126;48.160;17.130;2022-10-16T07:52:58;17.20;70.90
18002;DHT22;9126;48.160;17.130;2022-10-16T07:55:25;17.30;70.80
18002;DHT22;9126;48.160;17.130;2022-10-16T07:57:55;17.40;70.70
18002;DHT22;9126;48.160;17.130;2022-10-16T08:00:22;17.50;70.60
18002;DHT22;9126;48.160;17.130;2022-10-16T08:02:51;17.60;70.30
18002;DHT22;9126;48.160;17.130;2022-10-16T08:05:20;17.70;70.00
18002;DHT22;9126;48.160;17.130;2022-10-16T08:07:48;17.80;69.90
18002;DHT22;9126;48.160;17.130;2022-10-16T08:10:26;17.90;69.60
18002;DHT22;9126;48.160;17.130;2022-10-16T08:12:54;18.00;69.40
18002;DHT22;9126;48.160;17.130;2022-10-16T08:15:23;18.10;69.20
18002;DHT22;9126;48.160;17.130;2022-10-16T08:17:59;18.20;68.90
18002;DHT22;9126;48.160;17.130;2022-10-16T08:20:29;18.40;68.70
18002;DHT22;9126;48.160;17.130;2022-10-16T08:22:56;18.50;68.30
18002;DHT22;9126;48.160;17.130;2022-10-16T08:25:25;18.60;68.70
18002;DHT22;9126;48.160;17.130;2022-10-16T08:27:53;18.60;68.40
18002;DHT22;9126;48.160;17.130;2022-10-16T08:30:24;18.70;67.70
18002;DHT22;9126;48.160;17.130;2022-10-16T08:32:52;18.70;67.50
18002;DHT22;9126;48.160;17.130;2022-10-16T08:35:20;18.70;67.30
18002;DHT22;9126;48.160;17.130;2022-10-16T08:38:05;18.60;67.20
18002;DHT22;9126;48.160;17.130;2022-10-16T08:40:50;18.50;67.20
18002;DHT22;9126;48.160;17.130;2022-10-16T08:43:43;18.30;67.10
18002;DHT22;9126;48.160;17.130;2022-10-16T08:46:25;18.20;67.20
18002;DHT22;9126;48.160;17.130;2022-10-16T08:48:59;18.20;67.40
18002;DHT22;9126;48.160;17.130;2022-10-16T08:51:29;18.10;67.50
18002;DHT22;9126;48.160;17.130;2022-10-16T08:53:59;18.10;67.70
18002;DHT22;9126;48.160;17.130;2022-10-16T08:56:29;18.10;67.80
18002;DHT22;9126;48.160;17.130;2022-10-16T08:58:59;18.10;67.90
18002;DHT22;9126;48.160;17.130;2022-10-16T09:01:37;18.10;68.00
18002;DHT22;9126;48.160;17.130;2022-10-16T09:04:35;18.20;68.00
18002;DHT22;9126;48.160;17.130;2022-10-16T09:07:14;18.40;67.90
18002;DHT22;9126;48.160;17.130;2022-10-16T09:09:54;18.50;67.80
18002;DHT22;9126;48.160;17.130;2022-10-16T09:12:35;18.60;67.60
18002;DHT22;9126;48.160;17.130;2022-10-16T09:15:19;18.70;67.40
18002;DHT22;9126;48.160;17.130;2022-10-16T09:17:54;18.80;67.20
18002;DHT22;9126;48.160;17.130;2022-10-16T09:20:32;18.80;67.00
18002;DHT22;9126;48.160;17.130;2022-10-16T09:23:16;18.90;67.00
18002;DHT22;9126;48.160;17.130;2022-10-16T09:25:47;18.90;66.80
18002;DHT22;9126;48.160;17.130;2022-10-16T09:28:18;18.80;66.60
18002;DHT22;9126;48.160;17.130;2022-10-16T09:30:47;18.80;66.70
18002;DHT22;9126;48.160;17.130;2022-10-16T09:33:18;18.80;66.70
18002;DHT22;9126;48.160;17.130;2022-10-16T09:35:48;18.90;66.90
18002;DHT22;9126;48.160;17.130;2022-10-16T09:38:25;18.90;66.80
18002;DHT22;9126;48.160;17.130;2022-10-16T09:40:54;19.00;66.70
18002;DHT22;9126;48.160;17.130;2022-10-16T09:43:26;19.10;66.70
18002;DHT22;9126;48.160;17.130;2022-10-16T09:45:58;19.10;66.70
18002;DHT22;9126;48.160;17.130;2022-10-16T09:48:30;19.20;66.60
18002;DHT22;9126;48.160;17.130;2022-10-16T09:51:00;19.20;66.40
18002;DHT22;9126;48.160;17.130;2022-10-16T09:53:43;19.20;66.40
18002;DHT22;9126;48.160;17.130;2022-10-16T09:56:20;19.20;66.30
18002;DHT22;9126;48.160;17.130;2022-10-16T09:58:51;19.30;66.30
18002;DHT22;9126;48.160;17.130;2022-10-16T10:01:21;19.30;66.20
18002;DHT22;9126;48.160;17.130;2022-10-16T10:03:58;19.40;66.20
18002;DHT22;9126;48.160;17.130;2022-10-16T10:06:32;19.40;66.10
18002;DHT22;9126;48.160;17.130;2022-10-16T10:09:05;19.50;66.00
18002;DHT22;9126;48.160;17.130;2022-10-16T10:11:42;19.50;65.90
18002;DHT22;9126;48.160;17.130;2022-10-16T10:14:32;19.60;65.80
18002;DHT22;9126;48.160;17.130;2022-10-16T10:17:14;19.60;65.70
18002;DHT22;9126;48.160;17.130;2022-10-16T10:19:54;19.70;65.60
18002;DHT22;9126;48.160;17.130;2022-10-16T10:22:30;19.70;65.50
18002;DHT22;9126;48.160;17.130;2022-10-16T10:25:15;19.80;65.40
18002;DHT22;9126;48.160;17.130;2022-10-16T10:31:29;20.00;65.10
18002;DHT22;9126;48.160;17.130;2022-10-16T10:34:13;20.10;64.90
18002;DHT22;9126;48.160;17.130;2022-10-16T10:36:53;20.10;64.70
18002;DHT22;9126;48.160;17.130;2022-10-16T10:39:27;20.20;64.60
18002;DHT22;9126;48.160;17.130;2022-10-16T10:42:12;20.20;64.40
18002;DHT22;9126;48.160;17.130;2022-10-16T10:45:01;20.20;64.20
18002;DHT22;9126;48.160;17.130;2022-10-16T10:47:40;20.20;64.10
18002;DHT22;9126;48.160;17.130;2022-10-16T10:50:18;20.30;64.00
18002;DHT22;9126;48.160;17.130;2022-10-16T10:52:58;20.30;63.90
18002;DHT22;9126;48.160;17.130;2022-10-16T10:55:33;20.30;63.80
18002;DHT22;9126;48.160;17.130;2022-10-16T10:58:22;20.40;63.70
18002;DHT22;9126;48.160;17.130;2022-10-16T11:00:56;20.40;63.60
18002;DHT22;9126;48.160;17.130;2022-10-16T11:03:47;20.50;63.50
18002;DHT22;9126;48.160;17.130;2022-10-16T11:06:25;20.60;63.40
18002;DHT22;9126;48.160;17.130;2022-10-16T11:09:00;20.70;63.20
18002;DHT22;9126;48.160;17.130;2022-10-16T11:11:44;20.70;63.10
18002;DHT22;9126;48.160;17.130;2022-10-16T11:14:18;20.80;62.90
18002;DHT22;9126;48.160;17.130;2022-10-16T11:16:51;20.80;62.70
18002;DHT22;9126;48.160;17.130;2022-10-16T11:19:31;20.80;62.50
18002;DHT22;9126;48.160;17.130;2022-10-16T11:22:15;20.90;62.40
18002;DHT22;9126;48.160;17.130;2022-10-16T11:24:48;21.00;62.30
18002;DHT22;9126;48.160;17.130;2022-10-16T11:27:21;21.10;62.20
18002;DHT22;9126;48.160;17.130;2022-10-16T11:29:57;21.20;62.10
18002;DHT22;9126;48.160;17.130;2022-10-16T11:32:39;21.30;61.80
18002;DHT22;9126;48.160;17.130;2022-10-16T11:35:15;21.40;61.70
18002;DHT22;9126;48.160;17.130;2022-10-16T11:37:48;21.50;61.30
18002;DHT22;9126;48.160;17.130;2022-10-16T11:40:22;21.50;61.00
18002;DHT22;9126;48.160;17.130;2022-10-16T11:42:54;21.60;60.90
18002;DHT22;9126;48.160;17.130;2022-10-16T11:45:29;21.60;60.80
18002;DHT22;9126;48.160;17.130;2022-10-16T11:48:03;21.70;60.50
18002;DHT22;9126;48.160;17.130;2022-10-16T11:50:40;21.70;60.30
18002;DHT22;9126;48.160;17.130;2022-10-16T11:53:16;21.80;60.10
18002;DHT22;9126;48.160;17.130;2022-10-16T11:55:45;21.80;60.00
18002;DHT22;9126;48.160;17.130;2022-10-16T11:58:22;21.70;59.70
18002;DHT22;9126;48.160;17.130;2022-10-16T12:01:01;21.70;59.70
18002;DHT22;9126;48.160;17.130;2022-10-16T12:03:45;21.70;59.60
18002;DHT22;9126;48.160;17.130;2022-10-16T12:06:29;21.70;59.60
18002;DHT22;9126;48.160;17.130;2022-10-16T12:08:59;21.70;59.50
18002;DHT22;9126;48.160;17.130;2022-10-16T12:11:35;21.70;59.50
18002;DHT22;9126;48.160;17.130;2022-10-16T12:14:18;21.80;59.50
18002;DHT22;9126;48.160;17.130;2022-10-16T12:16:54;21.80;59.50
18002;DHT22;9126;48.160;17.130;2022-10-16T12:19:23;21.90;59.40
18002;DHT22;9126;48.160;17.130;2022-10-16T12:21:54;21.90;59.40
18002;DHT22;9126;48.160;17.130;2022-10-16T12:24:31;21.90;59.30
18002;DHT22;9126;48.160;17.130;2022-10-16T12:26:59;22.00;59.30
18002;DHT22;9126;48.160;17.130;2022-10-16T12:29:33;21.90;59.20
18002;DHT22;9126;48.160;17.130;2022-10-16T12:32:02;22.00;59.10
18002;DHT22;9126;48.160;17.130;2022-10-16T12:34:37;22.00;59.10
18002;DHT22;9126;48.160;17.130;2022-10-16T12:37:14;22.00;59.00
18002;DHT22;9126;48.160;17.130;2022-10-16T12:39:42;22.00;58.90
18002;DHT22;9126;48.160;17.130;2022-10-16T12:42:31;22.00;58.90
18002;DHT22;9126;48.160;17.130;2022-10-16T12:45:00;22.10;58.80
18002;DHT22;9126;48.160;17.130;2022-10-16T12:47:48;22.10;58.70
18002;DHT22;9126;48.160;17.130;2022-10-16T12:50:35;22.10;58.60
18002;DHT22;9126;48.160;17.130;2022-10-16T12:53:18;22.20;58.50
18002;DHT22;9126;48.160;17.130;2022-10-16T12:56:04;22.20;58.40
18002;DHT22;9126;48.160;17.130;2022-10-16T12:59:00;22.20;58.20
18002;DHT22;9126;48.160;17.130;2022-10-16T13:01:41;22.20;58.10
18002;DHT22;9126;48.160;17.130;2022-10-16T13:04:46;22.30;57.90
18002;DHT22;9126;48.160;17.130;2022-10-16T13:07:35;22.30;57.80
18002;DHT22;9126;48.160;17.130;2022-10-16T13:10:23;22.40;57.90
18002;DHT22;9126;48.160;17.130;2022-10-16T13:13:32;22.50;57.80
18002;DHT22;9126;48.160;17.130;2022-10-16T13:16:13;22.50;57.60
18002;DHT22;9126;48.160;17.130;2022-10-16T13:18:56;22.60;57.60
18002;DHT22;9126;48.160;17.130;2022-10-16T13:21:37;22.70;57.40
18002;DHT22;9126;48.160;17.130;2022-10-16T13:24:19;22.80;57.30
18002;DHT22;9126;48.160;17.130;2022-10-16T13:27:00;23.10;57.10
18002;DHT22;9126;48.160;17.130;2022-10-16T13:29:35;23.20;56.70
18002;DHT22;9126;48.160;17.130;2022-10-16T13:32:09;23.30;56.30
18002;DHT22;9126;48.160;17.130;2022-10-16T13:34:44;23.30;56.00
18002;DHT22;9126;48.160;17.130;2022-10-16T13:37:18;23.40;55.80
18002;DHT22;9126;48.160;17.130;2022-10-16T13:39:48;23.50;55.60
18002;DHT22;9126;48.160;17.130;2022-10-16T13:42:22;23.60;55.40
18002;DHT22;9126;48.160;17.130;2022-10-16T13:44:55;23.70;55.10
18002;DHT22;9126;48.160;17.130;2022-10-16T13:47:24;23.80;54.90
18002;DHT22;9126;48.160;17.130;2022-10-16T13:50:00;23.90;54.70
18002;DHT22;9126;48.160;17.130;2022-10-16T13:52:28;24.00;54.30
18002;DHT22;9126;48.160;17.130;2022-10-16T13:54:56;24.10;54.20
18002;DHT22;9126;48.160;17.130;2022-10-16T13:57:50;24.20;53.90
18002;DHT22;9126;48.160;17.130;2022-10-16T14:00:33;24.40;53.70
18002;DHT22;9126;48.160;17.130;2022-10-16T14:03:23;24.50;53.50
18002;DHT22;9126;48.160;17.130;2022-10-16T14:05:54;24.50;53.30
18002;DHT22;9126;48.160;17.130;2022-10-16T14:08:27;24.60;53.20
18002;DHT22;9126;48.160;17.130;2022-10-16T14:11:04;24.60;53.00
18002;DHT22;9126;48.160;17.130;2022-10-16T14:13:42;24.50;52.80
18002;DHT22;9126;48.160;17.130;2022-10-16T14:16:21;24.50;52.80
18002;DHT22;9126;48.160;17.130;2022-10-16T14:18:56;24.40;52.70
18002;DHT22;9126;48.160;17.130;2022-10-16T14:21:27;24.50;52.70
18002;DHT22;9126;48.160;17.130;2022-10-16T14:23:59;24.60;52.70
18002;DHT22;9126;48.160;17.130;2022-10-16T14:26:42;24.60;52.50
18002;DHT22;9126;48.160;17.130;2022-10-16T14:29:13;24.60;52.40
18002;DHT22;9126;48.160;17.130;2022-10-16T14:31:41;24.50;52.40
18002;DHT22;9126;48.160;17.130;2022-10-16T14:34:31;24.60;52.30
18002;DHT22;9126;48.160;17.130;2022-10-16T14:37:00;24.90;52.20
18002;DHT22;9126;48.160;17.130;2022-10-16T14:39:33;25.00;51.90
18002;DHT22;9126;48.160;17.130;2022-10-16T14:42:00;25.10;51.70
18002;DHT22;9126;48.160;17.130;2022-10-16T14:44:40;25.00;51.40
18002;DHT22;9126;48.160;17.130;2022-10-16T14:47:26;25.10;51.30
18002;DHT22;9126;48.160;17.130;2022-10-16T14:49:54;25.10;51.10
18002;DHT22;9126;48.160;17.130;2022-10-16T14:52:24;25.10;51.10
18002;DHT22;9126;48.160;17.130;2022-10-16T14:54:51;25.10;51.00
18002;DHT22;9126;48.160;17.130;2022-10-16T14:57:23;25.00;50.90
18002;DHT22;9126;48.160;17.130;2022-10-16T14:59:52;25.00;50.90
18002;DHT22;9126;48.160;17.130;2022-10-16T15:02:28;25.10;50.90
18002;DHT22;9126;48.160;17.130;2022-10-16T15:04:56;25.00;50.90
18002;DHT22;9126;48.160;17.130;2022-10-16T15:07:26;24.90;50.80
18002;DHT22;9126;48.160;17.130;2022-10-16T15:09:55;24.90;50.90
18002;DHT22;9126;48.160;17.130;2022-10-16T15:12:24;24.80;51.10
18002;DHT22;9126;48.160;17.130;2022-10-16T15:18:07;24.50;51.30
18002;DHT22;9126;48.160;17.130;2022-10-16T15:20:51;24.50;51.50
18002;DHT22;9126;48.160;17.130;2022-10-16T15:23:23;24.40;51.70
18002;DHT22;9126;48.160;17.130;2022-10-16T15:26:04;24.40;51.90
18002;DHT22;9126;48.160;17.130;2022-10-16T15:28:32;24.30;52.10
18002;DHT22;9126;48.160;17.130;2022-10-16T15:31:12;24.20;52.20
18002;DHT22;9126;48.160;17.130;2022-10-16T15:33:49;24.20;52.50
18002;DHT22;9126;48.160;17.130;2022-10-16T15:36:39;24.10;52.60
18002;DHT22;9126;48.160;17.130;2022-10-16T15:39:26;24.00;52.80
18002;DHT22;9126;48.160;17.130;2022-10-16T15:41:55;23.90;53.00
18002;DHT22;9126;48.160;17.130;2022-10-16T15:44:23;23.80;53.20
18002;DHT22;9126;48.160;17.130;2022-10-16T15:46:55;23.70;53.40
18002;DHT22;9126;48.160;17.130;2022-10-16T15:49:29;23.60;53.50
18002;DHT22;9126;48.160;17.130;2022-10-16T15:51:56;23.50;53.50
18002;DHT22;9126;48.160;17.130;2022-10-16T15:54:25;23.40;53.50
18002;DHT22;9126;48.160;17.130;2022-10-16T15:56:53;23.30;53.50
18002;DHT22;9126;48.160;17.130;2022-10-16T15:59:21;23.20;53.60
18002;DHT22;9126;48.160;17.130;2022-10-16T16:01:48;23.10;53.60
18002;DHT22;9126;48.160;17.130;2022-10-16T16:04:17;23.10;53.70
18002;DHT22;9126;48.160;17.130;2022-10-16T16:06:46;23.00;54.30
18002;DHT22;9126;48.160;17.130;2022-10-16T16:09:14;22.90;53.90
18002;DHT22;9126;48.160;17.130;2022-10-16T16:11:46;22.80;54.00